createdAt,value
2018-12-15T00:00:36.807Z,-1.53
2018-12-15T00:03:06.708Z,-1.61
2018-12-15T00:05:36.692Z,-1.63
2018-12-15T00:08:06.560Z,-1.59
2018-12-15T00:10:36.658Z,-1.66
2018-12-15T00:13:06.653Z,-1.70
2018-12-15T00:15:36.529Z,-1.64
2018-12-15T00:18:07.476Z,-1.61
2018-12-15T00:20:37.872Z,-1.58
2018-12-15T00:23:08.259Z,-1.59
2018-12-15T00:25:38.122Z,-1.62
2018-12-15T00:28:07.997Z,-1.60
2018-12-15T00:30:37.821Z,-1.57
2018-12-15T00:33:07.715Z,-1.61
2018-12-15T00:39:23.420Z,-1.55
2018-12-15T00:42:18.059Z,-1.57
2018-12-15T00:44:47.999Z,-1.57
2018-12-15T00:47:17.893Z,-1.46
2018-12-15T00:49:47.705Z,-1.54
2018-12-15T00:52:18.048Z,-1.54
2018-12-15T00:54:48.059Z,-1.53
2018-12-15T00:57:17.903Z,-1.57
2018-12-15T00:59:47.991Z,-1.59
2018-12-15T01:02:17.995Z,-1.57
2018-12-15T01:04:48.060Z,-1.55
2018-12-15T01:07:17.893Z,-1.55
2018-12-15T01:09:48.021Z,-1.52
2018-12-15T01:12:18.706Z,-1.55
2018-12-15T01:14:48.767Z,-1.59
2018-12-15T01:17:20.710Z,-1.56
2018-12-15T01:19:50.398Z,-1.53
2018-12-15T01:22:20.428Z,-1.55
2018-12-15T01:24:50.391Z,-1.61
2018-12-15T01:27:20.143Z,-1.53
2018-12-15T01:29:49.910Z,-1.54
2018-12-15T01:32:19.650Z,-1.59
2018-12-15T01:34:49.696Z,-1.61
2018-12-15T01:37:19.832Z,-1.60
2018-12-15T01:39:49.581Z,-1.59
2018-12-15T01:42:19.683Z,-1.63
2018-12-15T01:44:49.468Z,-1.63
2018-12-15T01:47:19.237Z,-1.61
2018-12-15T01:49:49.740Z,-1.57
2018-12-15T01:52:19.498Z,-1.62
2018-12-15T01:54:49.470Z,-1.65
2018-12-15T01:57:19.563Z,-1.64
2018-12-15T01:59:49.319Z,-1.64
2018-12-15T02:02:19.089Z,-1.61
2018-12-15T02:04:48.851Z,-1.63
2018-12-15T02:07:18.645Z,-1.63
2018-12-15T02:09:48.445Z,-1.60
2018-12-15T02:12:18.219Z,-1.60
2018-12-15T02:14:48.033Z,-1.57
2018-12-15T02:17:17.975Z,-1.62
2018-12-15T02:19:48.803Z,-1.59
2018-12-15T02:22:19.007Z,-1.60
2018-12-15T02:24:49.220Z,-1.63
2018-12-15T02:27:19.060Z,-1.62
2018-12-15T02:29:48.898Z,-1.61
2018-12-15T02:32:18.715Z,-1.51
2018-12-15T02:34:48.517Z,-1.52
2018-12-15T02:37:18.283Z,-1.37
2018-12-15T02:39:48.078Z,-1.49
2018-12-15T02:42:18.208Z,-1.62
2018-12-15T02:44:48.280Z,-1.61
2018-12-15T02:47:18.077Z,-1.64
2018-12-15T02:49:47.859Z,-1.65
2018-12-15T02:52:17.736Z,-1.64
2018-12-15T02:54:47.553Z,-1.65
2018-12-15T02:57:17.620Z,-1.64
2018-12-15T02:59:47.671Z,-1.62
2018-12-15T03:02:17.718Z,-1.63
2018-12-15T03:04:47.964Z,-1.67
2018-12-15T03:07:18.575Z,-1.61
2018-12-15T03:09:48.607Z,-1.60
2018-12-15T03:12:18.689Z,-1.64
2018-12-15T03:14:48.803Z,-1.69
2018-12-15T03:21:21.947Z,-1.72
2018-12-15T03:23:51.683Z,-1.76
2018-12-15T03:26:21.517Z,-1.73
2018-12-15T03:28:51.250Z,-1.75
2018-12-15T03:31:21.308Z,-1.74
2018-12-15T03:33:51.439Z,-1.73
2018-12-15T03:36:21.232Z,-1.70
2018-12-15T03:38:51.050Z,-1.69
2018-12-15T03:41:20.821Z,-1.65
2018-12-15T03:43:50.615Z,-1.68
2018-12-15T03:46:20.750Z,-1.68
2018-12-15T03:48:50.555Z,-1.73
2018-12-15T03:51:20.312Z,-1.76
2018-12-15T03:53:50.706Z,-1.78
2018-12-15T03:56:20.806Z,-1.79
2018-12-15T03:58:50.573Z,-1.85
2018-12-15T04:01:20.349Z,-1.86
2018-12-15T04:03:50.125Z,-1.87
2018-12-15T04:06:19.946Z,-1.90
2018-12-15T04:08:50.030Z,-1.89
2018-12-15T04:11:20.022Z,-1.85
2018-12-15T04:13:50.010Z,-1.76
2018-12-15T04:16:19.750Z,-1.78
2018-12-15T04:18:49.515Z,-1.74
2018-12-15T04:21:19.321Z,-1.76
2018-12-15T04:23:49.396Z,-1.87
2018-12-15T04:26:19.236Z,-1.92
2018-12-15T04:28:49.431Z,-1.87
2018-12-15T04:31:19.212Z,-1.92
2018-12-15T04:33:49.228Z,-1.93
2018-12-15T04:36:20.688Z,-1.90
2018-12-15T04:38:50.496Z,-1.91
2018-12-15T04:41:20.268Z,-1.85
2018-12-15T04:43:50.532Z,-1.84
2018-12-15T04:46:20.350Z,-1.84
2018-12-15T04:48:50.418Z,-1.88
2018-12-15T04:51:20.194Z,-1.90
2018-12-15T04:53:50.204Z,-1.90
2018-12-15T04:56:19.972Z,-1.90
2018-12-15T04:58:49.750Z,-1.93
2018-12-15T05:01:19.474Z,-1.93
2018-12-15T05:03:49.235Z,-1.97
2018-12-15T05:06:19.030Z,-1.94
2018-12-15T05:08:48.787Z,-1.92
2018-12-15T05:12:20.735Z,-1.89
2018-12-15T05:14:50.540Z,-1.92
2018-12-15T05:17:20.365Z,-1.95
2018-12-15T05:19:50.155Z,-1.97
2018-12-15T05:22:20.489Z,-2.00
2018-12-15T05:25:25.227Z,-1.97
2018-12-15T05:27:55.030Z,-1.91
2018-12-15T05:30:25.098Z,-1.94
2018-12-15T05:32:55.134Z,-1.96
2018-12-15T05:35:24.932Z,-1.90
2018-12-15T05:41:30.959Z,-1.94
2018-12-15T05:44:00.844Z,-1.95
2018-12-15T05:46:31.033Z,-1.94
2018-12-15T05:49:00.835Z,-1.94
2018-12-15T05:51:30.875Z,-1.93
2018-12-15T05:54:00.843Z,-1.93
2018-12-15T05:56:30.631Z,-1.92
2018-12-15T05:59:00.850Z,-1.98
2018-12-15T06:01:30.694Z,-2.03
2018-12-15T06:04:00.503Z,-2.02
2018-12-15T06:06:30.961Z,-1.98
2018-12-15T06:09:01.076Z,-1.94
2018-12-15T06:11:31.227Z,-1.98
2018-12-15T06:14:00.984Z,-2.01
2018-12-15T06:16:30.851Z,-1.98
2018-12-15T06:19:01.257Z,-2.02
2018-12-15T06:21:31.048Z,-2.00
2018-12-15T06:24:01.098Z,-2.01
2018-12-15T06:26:30.884Z,-2.06
2018-12-15T06:29:00.794Z,-2.08
2018-12-15T06:31:30.564Z,-2.12
2018-12-15T06:34:00.308Z,-2.05
2018-12-15T06:36:30.100Z,-2.06
2018-12-15T06:38:59.882Z,-2.14
2018-12-15T06:41:29.648Z,-2.16
2018-12-15T06:43:59.498Z,-2.17
2018-12-15T06:46:29.764Z,-2.12
2018-12-15T06:48:59.804Z,-2.10
2018-12-15T06:51:29.724Z,-2.16
2018-12-15T06:53:59.478Z,-2.10
2018-12-15T06:56:29.276Z,-2.08
2018-12-15T06:58:59.048Z,-2.07
2018-12-15T07:01:28.815Z,-2.16
2018-12-15T07:03:58.646Z,-2.15
2018-12-15T07:06:28.747Z,-2.15
2018-12-15T07:08:58.595Z,-2.10
2018-12-15T07:11:28.761Z,-2.11
2018-12-15T07:13:58.567Z,-2.08
2018-12-15T07:16:28.954Z,-2.09
2018-12-15T07:18:58.752Z,-2.12
2018-12-15T07:21:28.561Z,-2.17
2018-12-15T07:23:58.361Z,-2.13
2018-12-15T07:26:28.155Z,-2.10
2018-12-15T07:28:58.000Z,-2.06
2018-12-15T07:31:27.803Z,-2.10
2018-12-15T07:33:57.573Z,-2.12
2018-12-15T07:36:27.363Z,-2.07
2018-12-15T07:38:57.145Z,-1.99
2018-12-15T07:41:27.015Z,-2.03
2018-12-15T07:43:56.766Z,-2.04
2018-12-15T07:46:26.516Z,-2.05
2018-12-15T07:48:56.286Z,-2.00
2018-12-15T07:51:26.075Z,-1.96
2018-12-15T07:53:56.135Z,-2.00
2018-12-15T07:56:28.130Z,-2.00
2018-12-15T07:58:57.938Z,-1.96
2018-12-15T08:01:28.068Z,-1.98
2018-12-15T08:03:57.869Z,-1.96
2018-12-15T08:06:28.068Z,-1.89
2018-12-15T08:08:57.987Z,-1.94
2018-12-15T08:11:33.109Z,-2.03
2018-12-15T08:14:07.326Z,-2.00
2018-12-15T08:16:37.294Z,-1.98
2018-12-15T08:19:07.136Z,-1.93
2018-12-15T08:21:37.626Z,-1.87
2018-12-15T08:24:07.424Z,-1.81
2018-12-15T08:26:37.696Z,-1.89
2018-12-15T08:29:07.535Z,-1.87
2018-12-15T08:31:37.468Z,-1.84
2018-12-15T08:34:07.416Z,-1.88
2018-12-15T08:36:37.232Z,-1.85
2018-12-15T08:39:09.041Z,-1.76
2018-12-15T08:41:38.871Z,-1.83
2018-12-15T08:44:08.678Z,-1.79
2018-12-15T08:46:38.524Z,-1.75
2018-12-15T08:49:08.644Z,-1.72
2018-12-15T08:51:39.402Z,-1.76
2018-12-15T08:54:09.246Z,-1.73
2018-12-15T08:56:39.869Z,-1.71
2018-12-15T08:59:09.713Z,-1.77
2018-12-15T09:01:39.537Z,-1.68
2018-12-15T09:07:45.503Z,-1.52
2018-12-15T09:10:15.282Z,-1.54
2018-12-15T09:12:45.095Z,-1.57
2018-12-15T09:15:14.939Z,-1.42
2018-12-15T09:17:44.826Z,-1.40
2018-12-15T09:20:15.046Z,-1.43
2018-12-15T09:22:44.934Z,-1.30
2018-12-15T09:25:15.209Z,-1.47
2018-12-15T09:27:44.987Z,-1.39
2018-12-15T09:30:14.793Z,-1.36
2018-12-15T09:32:44.688Z,-1.38
2018-12-15T09:35:14.582Z,-1.39
2018-12-15T09:37:44.420Z,-1.39
2018-12-15T09:40:14.349Z,-1.27
2018-12-15T09:42:44.729Z,-1.29
2018-12-15T09:45:15.183Z,-1.35
2018-12-15T09:47:45.283Z,-1.35
2018-12-15T09:50:15.547Z,-1.31
2018-12-15T09:52:45.463Z,-1.36
2018-12-15T09:55:15.475Z,-1.30
2018-12-15T09:57:45.391Z,-1.22
2018-12-15T10:00:15.709Z,-1.29
2018-12-15T10:02:45.643Z,-1.30
2018-12-15T10:05:15.903Z,-1.38
2018-12-15T10:08:23.829Z,-1.37
2018-12-15T10:10:53.658Z,-1.43
2018-12-15T10:13:23.555Z,-1.51
2018-12-15T10:15:53.363Z,-1.45
2018-12-15T10:18:23.282Z,-1.34
2018-12-15T10:20:53.541Z,-1.38
2018-12-15T10:23:23.361Z,-1.43
2018-12-15T10:25:53.173Z,-1.41
2018-12-15T10:28:22.953Z,-1.50
2018-12-15T10:31:59.022Z,-1.51
2018-12-15T10:34:28.833Z,-1.46
2018-12-15T10:36:58.660Z,-1.46
2018-12-15T10:39:28.534Z,-1.33
2018-12-15T10:41:58.518Z,-1.31
2018-12-15T10:44:28.436Z,-1.24
2018-12-15T10:46:59.017Z,-1.30
2018-12-15T10:49:30.886Z,-1.26
2018-12-15T10:52:00.751Z,-1.14
2018-12-15T10:54:31.158Z,-1.12
2018-12-15T10:57:00.986Z,-1.23
2018-12-15T10:59:30.758Z,-1.23
2018-12-15T11:02:00.592Z,-1.21
2018-12-15T11:04:30.462Z,-1.16
2018-12-15T11:07:00.433Z,-1.03
2018-12-15T11:09:30.242Z,-1.02
2018-12-15T11:12:00.082Z,-1.04
2018-12-15T11:14:29.946Z,-1.05
2018-12-15T11:16:59.932Z,-0.99
2018-12-15T11:19:37.023Z,-1.04
2018-12-15T11:22:03.048Z,-1.01
2018-12-15T11:24:33.342Z,-1.02
2018-12-15T11:27:04.075Z,-0.87
2018-12-15T11:29:34.007Z,-0.90
2018-12-15T11:35:40.311Z,-1.08
2018-12-15T11:38:10.227Z,-0.91
2018-12-15T11:40:40.109Z,-1.01
2018-12-15T11:43:09.973Z,-0.98
2018-12-15T11:45:39.905Z,-0.94
2018-12-15T11:48:26.651Z,-0.90
2018-12-15T11:50:56.849Z,-0.92
2018-12-15T11:53:26.772Z,-0.92
2018-12-15T11:55:56.738Z,-0.90
2018-12-15T11:58:27.956Z,-0.90
2018-12-15T12:04:34.471Z,-0.72
2018-12-15T12:07:04.762Z,-0.86
2018-12-15T12:09:34.693Z,-0.84
2018-12-15T12:12:04.654Z,-0.90
2018-12-15T12:14:34.511Z,-0.90
2018-12-15T12:17:04.567Z,-0.96
2018-12-15T12:19:34.530Z,-0.95
2018-12-15T12:22:04.403Z,-0.94
2018-12-15T12:24:34.269Z,-0.94
2018-12-15T12:27:04.112Z,-1.06
2018-12-15T12:29:33.957Z,-0.96
2018-12-15T12:32:03.817Z,-0.88
2018-12-15T12:34:33.638Z,-0.95
2018-12-15T12:37:03.519Z,-0.87
2018-12-15T12:39:33.486Z,-0.85
2018-12-15T12:42:03.388Z,-0.82
2018-12-15T12:44:33.523Z,-0.55
2018-12-15T12:47:03.483Z,-0.50
2018-12-15T12:49:33.387Z,-0.38
2018-12-15T12:52:03.307Z,-0.59
2018-12-15T12:54:33.275Z,-0.80
2018-12-15T12:57:03.249Z,-0.70
2018-12-15T12:59:33.184Z,-0.75
2018-12-15T13:02:03.153Z,-0.78
2018-12-15T13:04:32.996Z,-0.82
2018-12-15T13:07:02.846Z,-0.90
2018-12-15T13:09:32.781Z,-0.84
2018-12-15T13:12:02.774Z,-0.90
2018-12-15T13:14:32.575Z,-0.94
2018-12-15T13:17:02.432Z,-0.86
2018-12-15T13:19:32.360Z,-0.92
2018-12-15T13:22:02.266Z,-0.89
2018-12-15T13:24:32.849Z,-0.93
2018-12-15T13:27:02.699Z,-0.90
2018-12-15T13:29:32.535Z,-0.89
2018-12-15T13:32:02.435Z,-0.93
2018-12-15T13:34:32.644Z,-0.81
2018-12-15T13:37:02.574Z,-0.91
2018-12-15T13:39:32.496Z,-0.96
2018-12-15T13:42:02.380Z,-0.91
2018-12-15T13:44:32.284Z,-0.82
2018-12-15T13:47:02.242Z,-0.83
2018-12-15T13:49:32.166Z,-0.83
2018-12-15T13:52:02.156Z,-0.80
2018-12-15T13:58:07.930Z,-0.98
2018-12-15T14:00:37.770Z,-1.00
2018-12-15T14:03:07.662Z,-0.91
2018-12-15T14:05:37.594Z,-0.75
2018-12-15T14:08:07.558Z,-0.85
2018-12-15T14:10:37.627Z,-0.80
2018-12-15T14:13:07.596Z,-0.75
2018-12-15T14:15:37.444Z,-0.82
2018-12-15T14:18:07.340Z,-0.93
2018-12-15T14:20:37.210Z,-0.97
2018-12-15T14:23:07.329Z,-0.90
2018-12-15T14:25:37.204Z,-0.97
2018-12-15T14:28:07.149Z,-0.92
2018-12-15T14:30:37.042Z,-0.94
2018-12-15T14:33:07.042Z,-0.93
2018-12-15T14:35:37.274Z,-0.84
2018-12-15T14:38:07.229Z,-0.85
2018-12-15T14:40:37.227Z,-0.73
2018-12-15T14:43:07.104Z,-0.49
2018-12-15T14:45:36.991Z,-0.39
2018-12-15T14:48:06.958Z,-0.35
2018-12-15T14:50:36.918Z,-0.58
2018-12-15T14:53:06.784Z,-0.74
2018-12-15T14:55:37.619Z,-0.74
2018-12-15T14:58:08.232Z,-0.97
2018-12-15T15:00:38.290Z,-1.07
2018-12-15T15:03:08.234Z,-1.04
2018-12-15T15:05:38.193Z,-1.14
2018-12-15T15:08:08.203Z,-1.15
2018-12-15T15:10:38.614Z,-1.18
2018-12-15T15:13:08.698Z,-1.25
2018-12-15T15:15:38.630Z,-1.24
2018-12-15T15:18:08.596Z,-1.28
2018-12-15T15:20:38.522Z,-1.32
2018-12-15T15:23:09.100Z,-1.30
2018-12-15T15:25:38.960Z,-1.33
2018-12-15T15:28:08.772Z,-1.40
2018-12-15T15:30:38.518Z,-1.53
2018-12-15T15:33:08.419Z,-1.45
2018-12-15T15:35:38.279Z,-1.49
2018-12-15T15:38:08.750Z,-1.58
2018-12-15T15:40:38.664Z,-1.56
2018-12-15T15:43:08.572Z,-1.64
2018-12-15T15:45:38.430Z,-1.72
2018-12-15T15:48:08.309Z,-1.76
2018-12-15T15:50:38.225Z,-1.82
2018-12-15T15:53:08.057Z,-1.89
2018-12-15T15:55:38.042Z,-1.90
2018-12-15T15:58:07.912Z,-1.96
2018-12-15T16:00:37.904Z,-1.92
2018-12-15T16:03:07.785Z,-1.99
2018-12-15T16:05:37.632Z,-2.01
2018-12-15T16:08:07.554Z,-2.04
2018-12-15T16:10:37.486Z,-2.08
2018-12-15T16:13:07.476Z,-2.11
2018-12-15T16:15:37.351Z,-2.08
2018-12-15T16:18:07.503Z,-2.18
2018-12-15T16:20:43.144Z,-2.19
2018-12-15T16:23:10.129Z,-2.21
2018-12-15T16:25:40.014Z,-2.20
2018-12-15T16:28:09.906Z,-2.24
2018-12-15T16:30:40.004Z,-2.21
2018-12-15T16:33:09.791Z,-2.32
2018-12-15T16:35:40.451Z,-2.37
2018-12-15T16:38:10.335Z,-2.37
2018-12-15T16:40:40.267Z,-2.41
2018-12-15T16:43:10.838Z,-2.42
2018-12-15T16:45:41.049Z,-2.46
2018-12-15T16:48:10.877Z,-2.48
2018-12-15T16:50:40.646Z,-2.48
2018-12-15T16:53:12.261Z,-2.52
2018-12-15T16:55:42.013Z,-2.49
2018-12-15T16:58:11.824Z,-2.47
2018-12-15T17:00:42.755Z,-2.46
2018-12-15T17:03:12.955Z,-2.46
2018-12-15T17:09:19.106Z,-2.53
2018-12-15T17:11:48.897Z,-2.57
2018-12-15T17:14:18.979Z,-2.49
2018-12-15T17:16:48.829Z,-2.46
2018-12-15T17:19:18.646Z,-2.35
2018-12-15T17:21:48.485Z,-2.35
2018-12-15T17:24:18.337Z,-2.35
2018-12-15T17:26:48.119Z,-2.26
2018-12-15T17:29:17.846Z,-2.19
2018-12-15T17:31:47.927Z,-2.22
2018-12-15T17:34:17.689Z,-2.14
2018-12-15T17:36:47.820Z,-2.12
2018-12-15T17:39:18.919Z,-2.29
2018-12-15T17:41:48.736Z,-2.44
2018-12-15T17:44:18.643Z,-2.58
2018-12-15T17:46:48.389Z,-2.66
2018-12-15T17:49:18.191Z,-2.74
2018-12-15T17:51:48.284Z,-2.82
2018-12-15T17:54:18.105Z,-2.84
2018-12-15T17:56:47.891Z,-2.87
2018-12-15T17:59:17.659Z,-2.83
2018-12-15T18:01:47.463Z,-2.88
2018-12-15T18:04:17.275Z,-2.83
2018-12-15T18:06:47.803Z,-2.97
2018-12-15T18:09:17.590Z,-3.09
2018-12-15T18:11:48.433Z,-3.16
2018-12-15T18:14:18.202Z,-3.11
2018-12-15T18:16:48.041Z,-3.16
2018-12-15T18:19:18.759Z,-3.13
2018-12-15T18:21:48.555Z,-3.12
2018-12-15T18:24:18.609Z,-3.15
2018-12-15T18:26:48.394Z,-3.16
2018-12-15T18:29:18.151Z,-3.20
2018-12-15T18:31:48.687Z,-3.25
2018-12-15T18:34:18.747Z,-3.36
2018-12-15T18:36:48.760Z,-3.43
2018-12-15T18:39:18.538Z,-3.50
2018-12-15T18:41:48.370Z,-3.61
2018-12-15T18:44:18.116Z,-3.63
2018-12-15T18:46:48.559Z,-3.62
2018-12-15T18:49:18.320Z,-3.59
2018-12-15T18:51:48.088Z,-3.64
2018-12-15T18:54:17.836Z,-3.64
2018-12-15T18:56:48.792Z,-3.65
2018-12-15T18:59:20.555Z,-3.74
2018-12-15T19:01:50.402Z,-3.78
2018-12-15T19:04:20.944Z,-3.77
2018-12-15T19:06:51.136Z,-3.83
2018-12-15T19:09:20.930Z,-3.80
2018-12-15T19:11:50.656Z,-3.78
2018-12-15T19:14:20.507Z,-3.84
2018-12-15T19:16:50.248Z,-3.78
2018-12-15T19:19:20.054Z,-3.79
2018-12-15T19:21:49.862Z,-3.83
2018-12-15T19:24:20.070Z,-3.93
2018-12-15T19:26:49.880Z,-3.87
2018-12-15T19:29:19.672Z,-3.86
2018-12-15T19:31:49.594Z,-3.91
2018-12-15T19:34:19.403Z,-3.95
2018-12-15T19:36:49.775Z,-3.89
2018-12-15T19:39:19.882Z,-3.86
2018-12-15T19:41:50.001Z,-3.88
2018-12-15T19:44:20.471Z,-3.93
2018-12-15T19:46:50.326Z,-3.81
2018-12-15T19:49:21.923Z,-3.88
2018-12-15T19:51:51.711Z,-3.95
2018-12-15T19:54:21.810Z,-3.94
2018-12-15T19:56:51.892Z,-3.89
2018-12-15T19:59:21.714Z,-3.97
2018-12-15T20:01:51.510Z,-3.97
2018-12-15T20:04:21.251Z,-3.94
2018-12-15T20:06:51.776Z,-3.92
2018-12-15T20:09:21.581Z,-3.92
2018-12-15T20:11:51.380Z,-4.00
2018-12-15T20:14:22.979Z,-4.00
2018-12-15T20:16:52.830Z,-4.08
2018-12-15T20:19:22.744Z,-4.10
2018-12-15T20:21:52.617Z,-4.21
2018-12-15T20:24:22.536Z,-4.28
2018-12-15T20:26:52.633Z,-4.21
2018-12-15T20:29:22.546Z,-4.26
2018-12-15T20:31:52.442Z,-4.05
2018-12-15T20:34:22.349Z,-4.00
2018-12-15T20:36:52.304Z,-3.80
2018-12-15T20:39:22.174Z,-3.56
2018-12-15T20:41:52.117Z,-3.54
2018-12-15T20:44:22.099Z,-3.52
2018-12-15T20:46:51.997Z,-3.42
2018-12-15T20:50:51.364Z,-3.32
2018-12-15T20:53:21.261Z,-3.21
2018-12-15T20:55:51.097Z,-3.27
2018-12-15T20:58:20.941Z,-3.14
2018-12-15T21:00:51.011Z,-3.17
2018-12-15T21:03:20.993Z,-3.43
2018-12-15T21:05:50.923Z,-3.68
2018-12-15T21:08:20.803Z,-3.65
2018-12-15T21:10:51.295Z,-3.42
2018-12-15T21:13:21.556Z,-3.24
2018-12-15T21:18:39.784Z,-3.03
2018-12-15T21:21:09.814Z,-2.91
2018-12-15T21:23:39.708Z,-2.94
2018-12-15T21:26:09.695Z,-2.81
2018-12-15T21:29:21.881Z,-2.87
2018-12-15T21:31:56.726Z,-2.92
2018-12-15T21:34:24.200Z,-2.88
2018-12-15T21:36:54.500Z,-2.95
2018-12-15T21:43:00.604Z,-3.01
2018-12-15T21:45:30.467Z,-2.92
2018-12-15T21:48:00.438Z,-2.96
2018-12-15T21:50:30.403Z,-2.91
2018-12-15T21:53:00.592Z,-3.06
2018-12-15T21:55:30.520Z,-2.93
2018-12-15T21:58:00.374Z,-2.79
2018-12-15T22:00:30.251Z,-2.70
2018-12-15T22:03:00.079Z,-2.84
2018-12-15T22:05:30.010Z,-2.78
2018-12-15T22:08:00.408Z,-2.84
2018-12-15T22:10:30.232Z,-2.80
2018-12-15T22:13:00.133Z,-2.78
2018-12-15T22:15:30.031Z,-2.54
2018-12-15T22:17:59.880Z,-2.55
2018-12-15T22:20:30.392Z,-2.44
2018-12-15T22:23:00.254Z,-2.57
2018-12-15T22:25:30.133Z,-2.49
2018-12-15T22:28:00.044Z,-2.48
2018-12-15T22:30:30.178Z,-2.35
2018-12-15T22:33:00.393Z,-2.45
2018-12-15T22:35:30.298Z,-2.42
2018-12-15T22:38:00.237Z,-2.38
2018-12-15T22:40:30.550Z,-2.35
2018-12-15T22:43:00.359Z,-2.41
2018-12-15T22:45:30.962Z,-2.43
2018-12-15T22:48:00.902Z,-2.32
2018-12-15T22:50:30.759Z,-2.44
2018-12-15T22:53:00.631Z,-2.75
2018-12-15T22:55:30.980Z,-2.81
2018-12-15T22:58:00.961Z,-2.64
2018-12-15T23:00:35.257Z,-2.71
2018-12-15T23:03:05.615Z,-2.51
2018-12-15T23:05:35.631Z,-2.52
2018-12-15T23:08:05.647Z,-2.36
2018-12-15T23:10:36.305Z,-2.52
2018-12-15T23:13:07.338Z,-2.54
2018-12-15T23:15:37.532Z,-2.73
2018-12-15T23:18:07.749Z,-2.40
2018-12-15T23:20:37.661Z,-2.48
2018-12-15T23:23:07.623Z,-2.76
2018-12-15T23:25:37.513Z,-2.59
2018-12-15T23:28:07.443Z,-2.84
2018-12-15T23:30:37.346Z,-2.95
2018-12-15T23:33:07.153Z,-3.00
2018-12-15T23:35:37.068Z,-2.71
2018-12-15T23:38:06.909Z,-2.51
2018-12-15T23:40:36.941Z,-2.46
2018-12-15T23:43:06.985Z,-2.40
2018-12-15T23:45:36.855Z,-2.39
2018-12-15T23:48:06.782Z,-2.23
2018-12-15T23:50:36.707Z,-2.22
2018-12-15T23:53:07.246Z,-2.17
2018-12-15T23:55:37.080Z,-2.03
2018-12-15T23:58:06.931Z,-2.21
